Terminal Aerodrome Forecast
Issued by NWS

Home | Current Version | Previous Version | Text Only | Print | Product List | Glossary On
Versions: 1 2 3 4 5 6 7 8 9 10 11 12 13 14 15 16 17 18 19 20 21 22 23 24
000
FTPA31 PHFO 230300 AAA
TAFJHM
TAF AMD
PHJH 230310Z 2303/2324 01012G22KT P6SM VCSH SCT015 BKN035
     FM230800 01012G22KT P6SM VCTS SCT025CB BKN035
     FM232000 02014KT P6SM VCSH SCT015 BKN035
      AMD NOT SKED AFT 230400=

USA.gov is the U.S. government's official web portal to all federal, state and local government web resources and services.